sensor_id;sensor_type;location;lat;lon;timestamp;P1;durP1;ratioP1;P2;durP2;ratioP2
10226;SDS011;15634;48.766;2.272;2023-06-04T00:02:01;8.32;;;3.33;;
10226;SDS011;15634;48.766;2.272;2023-06-04T00:04:27;6.00;;;3.40;;
10226;SDS011;15634;48.766;2.272;2023-06-04T00:06:55;5.72;;;3.05;;
10226;SDS011;15634;48.766;2.272;2023-06-04T00:09:23;9.98;;;4.80;;
10226;SDS011;15634;48.766;2.272;2023-06-04T00:11:50;22.00;;;10.82;;
10226;SDS011;15634;48.766;2.272;2023-06-04T00:14:16;15.10;;;7.25;;
10226;SDS011;15634;48.766;2.272;2023-06-04T00:16:43;15.23;;;8.15;;
10226;SDS011;15634;48.766;2.272;2023-06-04T00:19:10;8.15;;;4.18;;
10226;SDS011;15634;48.766;2.272;2023-06-04T00:21:36;12.07;;;5.97;;
10226;SDS011;15634;48.766;2.272;2023-06-04T00:24:03;9.75;;;5.28;;
10226;SDS011;15634;48.766;2.272;2023-06-04T00:26:31;7.10;;;3.20;;
10226;SDS011;15634;48.766;2.272;2023-06-04T00:28:58;5.53;;;3.30;;
10226;SDS011;15634;48.766;2.272;2023-06-04T00:31:24;5.78;;;3.00;;
10226;SDS011;15634;48.766;2.272;2023-06-04T00:33:51;7.47;;;3.20;;
10226;SDS011;15634;48.766;2.272;2023-06-04T00:36:18;9.30;;;3.15;;
10226;SDS011;15634;48.766;2.272;2023-06-04T00:38:45;6.53;;;3.25;;
10226;SDS011;15634;48.766;2.272;2023-06-04T00:41:12;7.90;;;2.90;;
10226;SDS011;15634;48.766;2.272;2023-06-04T00:43:40;5.38;;;3.20;;
10226;SDS011;15634;48.766;2.272;2023-06-04T00:46:10;6.18;;;3.35;;
10226;SDS011;15634;48.766;2.272;2023-06-04T00:48:42;4.25;;;3.08;;
10226;SDS011;15634;48.766;2.272;2023-06-04T00:51:09;5.65;;;3.22;;
10226;SDS011;15634;48.766;2.272;2023-06-04T00:53:37;7.80;;;3.40;;
10226;SDS011;15634;48.766;2.272;2023-06-04T00:56:03;5.85;;;3.10;;
10226;SDS011;15634;48.766;2.272;2023-06-04T00:58:30;6.07;;;3.30;;
10226;SDS011;15634;48.766;2.272;2023-06-04T01:00:59;6.68;;;2.92;;
10226;SDS011;15634;48.766;2.272;2023-06-04T01:03:29;5.60;;;3.30;;
10226;SDS011;15634;48.766;2.272;2023-06-04T01:06:00;8.63;;;3.47;;
10226;SDS011;15634;48.766;2.272;2023-06-04T01:08:31;5.53;;;3.08;;
10226;SDS011;15634;48.766;2.272;2023-06-04T01:10:57;4.90;;;3.00;;
10226;SDS011;15634;48.766;2.272;2023-06-04T01:13:24;5.22;;;3.08;;
10226;SDS011;15634;48.766;2.272;2023-06-04T01:15:51;7.68;;;3.00;;
10226;SDS011;15634;48.766;2.272;2023-06-04T01:18:20;7.15;;;3.60;;
10226;SDS011;15634;48.766;2.272;2023-06-04T01:20:54;6.32;;;3.10;;
10226;SDS011;15634;48.766;2.272;2023-06-04T01:23:25;11.18;;;3.30;;
10226;SDS011;15634;48.766;2.272;2023-06-04T01:25:59;5.90;;;2.90;;
10226;SDS011;15634;48.766;2.272;2023-06-04T01:28:27;5.93;;;2.88;;
10226;SDS011;15634;48.766;2.272;2023-06-04T01:30:55;5.80;;;3.00;;
10226;SDS011;15634;48.766;2.272;2023-06-04T01:33:23;5.93;;;3.10;;
10226;SDS011;15634;48.766;2.272;2023-06-04T01:35:49;5.30;;;2.80;;
10226;SDS011;15634;48.766;2.272;2023-06-04T01:38:16;8.75;;;3.15;;
10226;SDS011;15634;48.766;2.272;2023-06-04T01:40:43;5.97;;;3.40;;
10226;SDS011;15634;48.766;2.272;2023-06-04T01:43:10;8.38;;;3.47;;
10226;SDS011;15634;48.766;2.272;2023-06-04T01:45:37;9.65;;;2.85;;
10226;SDS011;15634;48.766;2.272;2023-06-04T01:48:04;5.30;;;2.70;;
10226;SDS011;15634;48.766;2.272;2023-06-04T01:50:33;5.55;;;2.95;;
10226;SDS011;15634;48.766;2.272;2023-06-04T01:52:59;6.32;;;3.10;;
10226;SDS011;15634;48.766;2.272;2023-06-04T01:55:26;5.10;;;2.97;;
10226;SDS011;15634;48.766;2.272;2023-06-04T01:57:54;5.30;;;2.90;;
10226;SDS011;15634;48.766;2.272;2023-06-04T02:00:21;7.05;;;2.97;;
10226;SDS011;15634;48.766;2.272;2023-06-04T02:02:48;4.95;;;3.15;;
10226;SDS011;15634;48.766;2.272;2023-06-04T02:05:15;6.35;;;3.25;;
10226;SDS011;15634;48.766;2.272;2023-06-04T02:07:44;6.97;;;3.05;;
10226;SDS011;15634;48.766;2.272;2023-06-04T02:10:13;4.40;;;3.15;;
10226;SDS011;15634;48.766;2.272;2023-06-04T02:12:41;5.03;;;3.22;;
10226;SDS011;15634;48.766;2.272;2023-06-04T02:15:18;5.43;;;3.22;;
10226;SDS011;15634;48.766;2.272;2023-06-04T02:17:45;5.32;;;3.10;;
10226;SDS011;15634;48.766;2.272;2023-06-04T02:20:12;5.47;;;2.80;;
10226;SDS011;15634;48.766;2.272;2023-06-04T02:22:39;5.53;;;2.88;;
10226;SDS011;15634;48.766;2.272;2023-06-04T02:25:07;5.15;;;3.10;;
10226;SDS011;15634;48.766;2.272;2023-06-04T02:27:35;6.00;;;2.95;;
10226;SDS011;15634;48.766;2.272;2023-06-04T02:30:01;4.43;;;2.75;;
10226;SDS011;15634;48.766;2.272;2023-06-04T02:32:28;6.00;;;2.80;;
10226;SDS011;15634;48.766;2.272;2023-06-04T02:34:55;6.18;;;2.95;;
10226;SDS011;15634;48.766;2.272;2023-06-04T02:37:22;5.28;;;3.10;;
10226;SDS011;15634;48.766;2.272;2023-06-04T02:39:48;4.05;;;2.70;;
10226;SDS011;15634;48.766;2.272;2023-06-04T02:42:16;5.90;;;2.97;;
10226;SDS011;15634;48.766;2.272;2023-06-04T02:44:43;5.32;;;3.13;;
10226;SDS011;15634;48.766;2.272;2023-06-04T02:47:09;5.43;;;3.20;;
10226;SDS011;15634;48.766;2.272;2023-06-04T02:49:36;6.10;;;2.90;;
10226;SDS011;15634;48.766;2.272;2023-06-04T02:52:03;4.72;;;2.80;;
10226;SDS011;15634;48.766;2.272;2023-06-04T02:54:30;9.63;;;3.22;;
10226;SDS011;15634;48.766;2.272;2023-06-04T02:56:56;8.65;;;3.05;;
10226;SDS011;15634;48.766;2.272;2023-06-04T02:59:24;5.55;;;2.70;;
10226;SDS011;15634;48.766;2.272;2023-06-04T03:01:51;5.75;;;2.60;;
10226;SDS011;15634;48.766;2.272;2023-06-04T03:04:18;5.18;;;2.70;;
10226;SDS011;15634;48.766;2.272;2023-06-04T03:06:45;4.40;;;2.80;;
10226;SDS011;15634;48.766;2.272;2023-06-04T03:09:12;6.03;;;2.90;;
10226;SDS011;15634;48.766;2.272;2023-06-04T03:11:39;7.38;;;3.08;;
10226;SDS011;15634;48.766;2.272;2023-06-04T03:14:05;6.03;;;3.03;;
10226;SDS011;15634;48.766;2.272;2023-06-04T03:16:33;5.07;;;2.40;;
10226;SDS011;15634;48.766;2.272;2023-06-04T03:19:00;4.78;;;2.80;;
10226;SDS011;15634;48.766;2.272;2023-06-04T03:21:27;4.88;;;3.10;;
10226;SDS011;15634;48.766;2.272;2023-06-04T03:23:54;7.13;;;3.00;;
10226;SDS011;15634;48.766;2.272;2023-06-04T03:26:20;4.80;;;2.88;;
10226;SDS011;15634;48.766;2.272;2023-06-04T03:28:47;6.50;;;2.70;;
10226;SDS011;15634;48.766;2.272;2023-06-04T03:31:14;5.78;;;3.05;;
10226;SDS011;15634;48.766;2.272;2023-06-04T03:33:41;5.75;;;3.15;;
10226;SDS011;15634;48.766;2.272;2023-06-04T03:36:08;5.18;;;3.08;;
10226;SDS011;15634;48.766;2.272;2023-06-04T03:38:35;4.70;;;2.83;;
10226;SDS011;15634;48.766;2.272;2023-06-04T03:41:01;5.60;;;3.15;;
10226;SDS011;15634;48.766;2.272;2023-06-04T03:43:28;5.72;;;2.80;;
10226;SDS011;15634;48.766;2.272;2023-06-04T03:45:55;4.78;;;2.50;;
10226;SDS011;15634;48.766;2.272;2023-06-04T03:48:21;6.57;;;3.05;;
10226;SDS011;15634;48.766;2.272;2023-06-04T03:50:49;4.18;;;2.80;;
10226;SDS011;15634;48.766;2.272;2023-06-04T03:53:16;7.05;;;2.95;;
10226;SDS011;15634;48.766;2.272;2023-06-04T03:55:43;6.75;;;2.72;;
10226;SDS011;15634;48.766;2.272;2023-06-04T03:58:09;3.90;;;2.55;;
10226;SDS011;15634;48.766;2.272;2023-06-04T04:00:36;5.40;;;2.95;;
10226;SDS011;15634;48.766;2.272;2023-06-04T04:03:03;5.38;;;2.90;;
10226;SDS011;15634;48.766;2.272;2023-06-04T04:05:32;5.03;;;2.58;;
10226;SDS011;15634;48.766;2.272;2023-06-04T04:08:00;5.15;;;2.90;;
10226;SDS011;15634;48.766;2.272;2023-06-04T04:10:27;6.10;;;3.00;;
10226;SDS011;15634;48.766;2.272;2023-06-04T04:12:54;8.40;;;2.97;;
10226;SDS011;15634;48.766;2.272;2023-06-04T04:15:22;5.32;;;3.00;;
10226;SDS011;15634;48.766;2.272;2023-06-04T04:17:49;5.20;;;2.75;;
10226;SDS011;15634;48.766;2.272;2023-06-04T04:20:16;6.35;;;2.70;;
10226;SDS011;15634;48.766;2.272;2023-06-04T04:22:43;4.28;;;2.60;;
10226;SDS011;15634;48.766;2.272;2023-06-04T04:25:11;7.65;;;2.70;;
10226;SDS011;15634;48.766;2.272;2023-06-04T04:27:37;6.32;;;2.53;;
10226;SDS011;15634;48.766;2.272;2023-06-04T04:30:06;4.85;;;2.70;;
10226;SDS011;15634;48.766;2.272;2023-06-04T04:32:34;5.13;;;2.95;;
10226;SDS011;15634;48.766;2.272;2023-06-04T04:35:04;6.70;;;3.00;;
10226;SDS011;15634;48.766;2.272;2023-06-04T04:37:32;7.13;;;2.88;;
10226;SDS011;15634;48.766;2.272;2023-06-04T04:40:04;4.82;;;2.38;;
10226;SDS011;15634;48.766;2.272;2023-06-04T04:42:36;4.65;;;2.60;;
10226;SDS011;15634;48.766;2.272;2023-06-04T04:45:02;5.95;;;2.90;;
10226;SDS011;15634;48.766;2.272;2023-06-04T04:47:29;5.20;;;2.90;;
10226;SDS011;15634;48.766;2.272;2023-06-04T04:49:56;5.75;;;2.78;;
10226;SDS011;15634;48.766;2.272;2023-06-04T04:52:23;4.43;;;2.55;;
10226;SDS011;15634;48.766;2.272;2023-06-04T04:54:50;3.83;;;2.65;;
10226;SDS011;15634;48.766;2.272;2023-06-04T04:57:20;6.28;;;2.80;;
10226;SDS011;15634;48.766;2.272;2023-06-04T04:59:48;4.55;;;2.80;;
10226;SDS011;15634;48.766;2.272;2023-06-04T05:02:15;5.13;;;2.67;;
10226;SDS011;15634;48.766;2.272;2023-06-04T05:04:41;5.15;;;2.75;;
10226;SDS011;15634;48.766;2.272;2023-06-04T05:07:08;5.80;;;3.08;;
10226;SDS011;15634;48.766;2.272;2023-06-04T05:09:34;4.28;;;2.72;;
10226;SDS011;15634;48.766;2.272;2023-06-04T05:12:01;4.60;;;2.80;;
10226;SDS011;15634;48.766;2.272;2023-06-04T05:14:28;4.63;;;2.80;;
10226;SDS011;15634;48.766;2.272;2023-06-04T05:16:56;4.85;;;2.42;;
10226;SDS011;15634;48.766;2.272;2023-06-04T05:19:22;6.05;;;2.80;;
10226;SDS011;15634;48.766;2.272;2023-06-04T05:21:49;5.35;;;2.67;;
10226;SDS011;15634;48.766;2.272;2023-06-04T05:24:16;9.60;;;3.00;;
10226;SDS011;15634;48.766;2.272;2023-06-04T05:26:43;3.55;;;2.55;;
10226;SDS011;15634;48.766;2.272;2023-06-04T05:29:09;6.57;;;2.95;;
10226;SDS011;15634;48.766;2.272;2023-06-04T05:31:36;6.00;;;2.67;;
10226;SDS011;15634;48.766;2.272;2023-06-04T05:34:06;8.93;;;2.78;;
10226;SDS011;15634;48.766;2.272;2023-06-04T05:36:33;4.57;;;2.50;;
10226;SDS011;15634;48.766;2.272;2023-06-04T05:39:00;6.25;;;2.60;;
10226;SDS011;15634;48.766;2.272;2023-06-04T05:41:27;5.63;;;2.65;;
10226;SDS011;15634;48.766;2.272;2023-06-04T05:43:54;4.13;;;2.45;;
10226;SDS011;15634;48.766;2.272;2023-06-04T05:46:20;5.80;;;2.90;;
10226;SDS011;15634;48.766;2.272;2023-06-04T05:48:47;4.63;;;2.60;;
10226;SDS011;15634;48.766;2.272;2023-06-04T05:51:15;5.28;;;2.60;;
10226;SDS011;15634;48.766;2.272;2023-06-04T05:53:42;5.78;;;2.60;;
10226;SDS011;15634;48.766;2.272;2023-06-04T05:56:08;5.22;;;2.55;;
10226;SDS011;15634;48.766;2.272;2023-06-04T05:58:35;3.40;;;2.33;;
10226;SDS011;15634;48.766;2.272;2023-06-04T06:01:02;5.72;;;2.60;;
10226;SDS011;15634;48.766;2.272;2023-06-04T06:03:29;5.78;;;2.80;;
10226;SDS011;15634;48.766;2.272;2023-06-04T06:05:55;5.18;;;2.45;;
10226;SDS011;15634;48.766;2.272;2023-06-04T06:08:24;6.65;;;2.50;;
10226;SDS011;15634;48.766;2.272;2023-06-04T06:10:51;4.85;;;2.80;;
10226;SDS011;15634;48.766;2.272;2023-06-04T06:13:18;3.22;;;2.30;;
10226;SDS011;15634;48.766;2.272;2023-06-04T06:15:45;6.78;;;2.70;;
10226;SDS011;15634;48.766;2.272;2023-06-04T06:18:12;4.60;;;2.65;;
10226;SDS011;15634;48.766;2.272;2023-06-04T06:20:38;3.80;;;2.30;;
10226;SDS011;15634;48.766;2.272;2023-06-04T06:23:06;5.93;;;2.70;;
10226;SDS011;15634;48.766;2.272;2023-06-04T06:25:34;4.60;;;2.55;;
10226;SDS011;15634;48.766;2.272;2023-06-04T06:28:01;4.53;;;2.90;;
10226;SDS011;15634;48.766;2.272;2023-06-04T06:30:27;5.25;;;2.60;;
10226;SDS011;15634;48.766;2.272;2023-06-04T06:32:54;4.70;;;2.45;;
10226;SDS011;15634;48.766;2.272;2023-06-04T06:35:21;4.65;;;2.40;;
10226;SDS011;15634;48.766;2.272;2023-06-04T06:37:48;6.28;;;2.35;;
10226;SDS011;15634;48.766;2.272;2023-06-04T06:40:14;3.08;;;2.22;;
10226;SDS011;15634;48.766;2.272;2023-06-04T06:42:47;4.90;;;2.40;;
10226;SDS011;15634;48.766;2.272;2023-06-04T06:45:14;4.38;;;2.30;;
10226;SDS011;15634;48.766;2.272;2023-06-04T06:47:41;4.78;;;2.38;;
10226;SDS011;15634;48.766;2.272;2023-06-04T06:50:07;7.28;;;2.70;;
10226;SDS011;15634;48.766;2.272;2023-06-04T06:52:35;4.60;;;2.67;;
10226;SDS011;15634;48.766;2.272;2023-06-04T06:55:02;3.63;;;2.30;;
10226;SDS011;15634;48.766;2.272;2023-06-04T06:57:30;6.00;;;2.30;;
10226;SDS011;15634;48.766;2.272;2023-06-04T06:59:58;3.83;;;2.72;;
10226;SDS011;15634;48.766;2.272;2023-06-04T07:02:25;5.05;;;2.40;;
10226;SDS011;15634;48.766;2.272;2023-06-04T07:04:51;4.28;;;2.50;;
10226;SDS011;15634;48.766;2.272;2023-06-04T07:07:18;4.07;;;2.22;;
10226;SDS011;15634;48.766;2.272;2023-06-04T07:09:44;4.43;;;2.25;;
10226;SDS011;15634;48.766;2.272;2023-06-04T07:12:11;3.83;;;2.50;;
10226;SDS011;15634;48.766;2.272;2023-06-04T07:14:38;4.20;;;2.40;;
10226;SDS011;15634;48.766;2.272;2023-06-04T07:17:06;5.65;;;2.55;;
10226;SDS011;15634;48.766;2.272;2023-06-04T07:19:33;4.55;;;2.30;;
10226;SDS011;15634;48.766;2.272;2023-06-04T07:21:59;3.90;;;2.20;;
10226;SDS011;15634;48.766;2.272;2023-06-04T07:24:26;6.30;;;2.67;;
10226;SDS011;15634;48.766;2.272;2023-06-04T07:26:52;4.72;;;2.58;;
10226;SDS011;15634;48.766;2.272;2023-06-04T07:29:19;4.10;;;2.65;;
10226;SDS011;15634;48.766;2.272;2023-06-04T07:31:45;4.20;;;2.38;;
10226;SDS011;15634;48.766;2.272;2023-06-04T07:34:13;4.15;;;2.30;;
10226;SDS011;15634;48.766;2.272;2023-06-04T07:36:40;4.22;;;2.40;;
10226;SDS011;15634;48.766;2.272;2023-06-04T07:39:07;4.22;;;2.38;;
10226;SDS011;15634;48.766;2.272;2023-06-04T07:41:33;5.32;;;2.40;;
10226;SDS011;15634;48.766;2.272;2023-06-04T07:44:00;7.28;;;2.92;;
10226;SDS011;15634;48.766;2.272;2023-06-04T07:46:27;9.02;;;3.70;;
10226;SDS011;15634;48.766;2.272;2023-06-04T07:48:53;5.00;;;2.70;;
10226;SDS011;15634;48.766;2.272;2023-06-04T07:51:21;6.05;;;2.97;;
10226;SDS011;15634;48.766;2.272;2023-06-04T07:53:48;7.88;;;3.35;;
10226;SDS011;15634;48.766;2.272;2023-06-04T07:56:15;6.95;;;3.10;;
10226;SDS011;15634;48.766;2.272;2023-06-04T07:58:42;7.18;;;3.50;;
10226;SDS011;15634;48.766;2.272;2023-06-04T08:01:11;6.13;;;3.88;;
10226;SDS011;15634;48.766;2.272;2023-06-04T08:03:37;6.13;;;2.70;;
10226;SDS011;15634;48.766;2.272;2023-06-04T08:06:06;7.20;;;2.80;;
10226;SDS011;15634;48.766;2.272;2023-06-04T08:08:35;5.88;;;3.15;;
10226;SDS011;15634;48.766;2.272;2023-06-04T08:11:01;5.05;;;2.90;;
10226;SDS011;15634;48.766;2.272;2023-06-04T08:13:28;4.82;;;2.60;;
10226;SDS011;15634;48.766;2.272;2023-06-04T08:15:55;4.13;;;2.60;;
10226;SDS011;15634;48.766;2.272;2023-06-04T08:18:22;5.40;;;2.83;;
10226;SDS011;15634;48.766;2.272;2023-06-04T08:20:48;7.00;;;3.85;;
10226;SDS011;15634;48.766;2.272;2023-06-04T08:23:15;7.03;;;3.60;;
10226;SDS011;15634;48.766;2.272;2023-06-04T08:25:44;6.32;;;2.90;;
10226;SDS011;15634;48.766;2.272;2023-06-04T08:28:12;7.28;;;3.38;;
10226;SDS011;15634;48.766;2.272;2023-06-04T08:30:41;7.55;;;3.17;;
10226;SDS011;15634;48.766;2.272;2023-06-04T08:33:08;4.50;;;2.75;;
10226;SDS011;15634;48.766;2.272;2023-06-04T08:35:35;6.60;;;3.40;;
10226;SDS011;15634;48.766;2.272;2023-06-04T08:38:02;5.20;;;2.80;;
10226;SDS011;15634;48.766;2.272;2023-06-04T08:40:29;4.63;;;2.88;;
10226;SDS011;15634;48.766;2.272;2023-06-04T08:42:57;6.65;;;2.90;;
10226;SDS011;15634;48.766;2.272;2023-06-04T08:45:24;4.43;;;2.80;;
10226;SDS011;15634;48.766;2.272;2023-06-04T08:47:52;6.38;;;2.55;;
10226;SDS011;15634;48.766;2.272;2023-06-04T08:50:19;6.10;;;2.88;;
10226;SDS011;15634;48.766;2.272;2023-06-04T08:52:47;6.07;;;2.80;;
10226;SDS011;15634;48.766;2.272;2023-06-04T08:55:15;5.20;;;2.80;;
10226;SDS011;15634;48.766;2.272;2023-06-04T08:57:42;4.38;;;2.90;;
10226;SDS011;15634;48.766;2.272;2023-06-04T09:00:11;6.60;;;2.80;;
10226;SDS011;15634;48.766;2.272;2023-06-04T09:02:38;6.07;;;2.42;;
10226;SDS011;15634;48.766;2.272;2023-06-04T09:05:05;5.85;;;2.50;;
10226;SDS011;15634;48.766;2.272;2023-06-04T09:07:35;5.63;;;2.47;;
10226;SDS011;15634;48.766;2.272;2023-06-04T09:10:06;4.55;;;2.72;;
10226;SDS011;15634;48.766;2.272;2023-06-04T09:12:35;3.55;;;2.35;;
10226;SDS011;15634;48.766;2.272;2023-06-04T09:15:03;4.85;;;2.60;;
10226;SDS011;15634;48.766;2.272;2023-06-04T09:17:32;3.25;;;2.10;;
10226;SDS011;15634;48.766;2.272;2023-06-04T09:19:58;5.35;;;2.60;;
10226;SDS011;15634;48.766;2.272;2023-06-04T09:22:31;4.03;;;2.47;;
10226;SDS011;15634;48.766;2.272;2023-06-04T09:24:58;4.90;;;2.80;;
10226;SDS011;15634;48.766;2.272;2023-06-04T09:27:25;11.65;;;4.13;;
10226;SDS011;15634;48.766;2.272;2023-06-04T09:29:54;8.80;;;4.45;;
10226;SDS011;15634;48.766;2.272;2023-06-04T09:32:21;14.70;;;5.97;;
10226;SDS011;15634;48.766;2.272;2023-06-04T09:34:49;9.77;;;4.30;;
10226;SDS011;15634;48.766;2.272;2023-06-04T09:37:18;9.80;;;5.38;;
10226;SDS011;15634;48.766;2.272;2023-06-04T09:39:52;10.57;;;5.07;;
10226;SDS011;15634;48.766;2.272;2023-06-04T09:42:20;5.50;;;3.08;;
10226;SDS011;15634;48.766;2.272;2023-06-04T09:44:46;13.85;;;5.93;;
10226;SDS011;15634;48.766;2.272;2023-06-04T09:47:13;14.43;;;6.85;;
10226;SDS011;15634;48.766;2.272;2023-06-04T09:49:41;8.88;;;4.63;;
10226;SDS011;15634;48.766;2.272;2023-06-04T09:52:09;8.55;;;4.60;;
10226;SDS011;15634;48.766;2.272;2023-06-04T09:54:36;10.60;;;4.32;;
10226;SDS011;15634;48.766;2.272;2023-06-04T09:57:04;6.55;;;2.78;;
10226;SDS011;15634;48.766;2.272;2023-06-04T09:59:40;5.47;;;3.13;;
10226;SDS011;15634;48.766;2.272;2023-06-04T10:02:07;7.43;;;3.17;;
10226;SDS011;15634;48.766;2.272;2023-06-04T10:04:35;5.13;;;2.60;;
10226;SDS011;15634;48.766;2.272;2023-06-04T10:07:02;3.30;;;2.40;;
10226;SDS011;15634;48.766;2.272;2023-06-04T10:09:31;7.15;;;2.72;;
10226;SDS011;15634;48.766;2.272;2023-06-04T10:11:59;4.30;;;2.47;;
10226;SDS011;15634;48.766;2.272;2023-06-04T10:14:27;6.72;;;2.78;;
10226;SDS011;15634;48.766;2.272;2023-06-04T10:17:02;14.85;;;7.50;;
10226;SDS011;15634;48.766;2.272;2023-06-04T10:19:29;12.77;;;6.28;;
10226;SDS011;15634;48.766;2.272;2023-06-04T10:21:56;12.40;;;6.35;;
10226;SDS011;15634;48.766;2.272;2023-06-04T10:24:23;7.10;;;3.40;;
10226;SDS011;15634;48.766;2.272;2023-06-04T10:26:53;10.15;;;5.25;;
10226;SDS011;15634;48.766;2.272;2023-06-04T10:29:21;14.05;;;6.35;;
10226;SDS011;15634;48.766;2.272;2023-06-04T10:31:53;17.77;;;8.85;;
10226;SDS011;15634;48.766;2.272;2023-06-04T10:34:20;15.02;;;7.00;;
10226;SDS011;15634;48.766;2.272;2023-06-04T10:36:47;14.68;;;6.97;;
10226;SDS011;15634;48.766;2.272;2023-06-04T10:39:15;11.75;;;5.85;;
10226;SDS011;15634;48.766;2.272;2023-06-04T10:41:58;8.63;;;4.10;;
10226;SDS011;15634;48.766;2.272;2023-06-04T10:44:25;9.70;;;3.80;;
10226;SDS011;15634;48.766;2.272;2023-06-04T10:46:52;8.80;;;4.00;;
10226;SDS011;15634;48.766;2.272;2023-06-04T10:49:25;9.90;;;4.82;;
10226;SDS011;15634;48.766;2.272;2023-06-04T10:54:22;7.03;;;4.07;;
10226;SDS011;15634;48.766;2.272;2023-06-04T10:56:53;7.28;;;3.75;;
10226;SDS011;15634;48.766;2.272;2023-06-04T10:59:21;6.35;;;3.10;;
10226;SDS011;15634;48.766;2.272;2023-06-04T11:01:49;5.22;;;2.70;;
10226;SDS011;15634;48.766;2.272;2023-06-04T11:04:21;4.50;;;2.72;;
10226;SDS011;15634;48.766;2.272;2023-06-04T11:09:27;4.85;;;2.90;;
10226;SDS011;15634;48.766;2.272;2023-06-04T11:11:57;4.00;;;2.67;;
10226;SDS011;15634;48.766;2.272;2023-06-04T11:14:25;4.30;;;2.50;;
10226;SDS011;15634;48.766;2.272;2023-06-04T11:16:52;5.00;;;2.53;;
10226;SDS011;15634;48.766;2.272;2023-06-04T11:19:18;7.20;;;3.55;;
10226;SDS011;15634;48.766;2.272;2023-06-04T11:21:45;6.55;;;3.90;;
10226;SDS011;15634;48.766;2.272;2023-06-04T11:24:12;4.65;;;2.72;;
10226;SDS011;15634;48.766;2.272;2023-06-04T11:26:39;6.40;;;3.13;;
10226;SDS011;15634;48.766;2.272;2023-06-04T11:29:06;5.97;;;3.30;;
10226;SDS011;15634;48.766;2.272;2023-06-04T11:31:42;8.80;;;3.05;;
10226;SDS011;15634;48.766;2.272;2023-06-04T11:34:09;8.43;;;3.25;;
10226;SDS011;15634;48.766;2.272;2023-06-04T11:36:37;9.32;;;5.05;;
10226;SDS011;15634;48.766;2.272;2023-06-04T11:39:04;12.73;;;5.95;;
10226;SDS011;15634;48.766;2.272;2023-06-04T11:41:32;6.03;;;3.70;;
10226;SDS011;15634;48.766;2.272;2023-06-04T11:44:01;11.80;;;6.63;;
10226;SDS011;15634;48.766;2.272;2023-06-04T11:46:29;9.95;;;4.78;;
10226;SDS011;15634;48.766;2.272;2023-06-04T11:48:58;8.60;;;4.60;;
10226;SDS011;15634;48.766;2.272;2023-06-04T11:51:24;8.60;;;4.97;;
10226;SDS011;15634;48.766;2.272;2023-06-04T11:53:52;6.32;;;2.90;;
10226;SDS011;15634;48.766;2.272;2023-06-04T11:56:20;6.53;;;3.47;;
10226;SDS011;15634;48.766;2.272;2023-06-04T11:58:46;6.18;;;3.60;;
10226;SDS011;15634;48.766;2.272;2023-06-04T12:01:13;7.60;;;3.40;;
10226;SDS011;15634;48.766;2.272;2023-06-04T12:03:40;5.25;;;2.55;;
10226;SDS011;15634;48.766;2.272;2023-06-04T12:06:15;4.03;;;2.90;;
10226;SDS011;15634;48.766;2.272;2023-06-04T12:08:44;8.32;;;3.25;;
10226;SDS011;15634;48.766;2.272;2023-06-04T12:11:21;6.10;;;3.13;;
10226;SDS011;15634;48.766;2.272;2023-06-04T12:13:51;17.58;;;8.20;;
10226;SDS011;15634;48.766;2.272;2023-06-04T12:16:18;11.85;;;5.70;;
10226;SDS011;15634;48.766;2.272;2023-06-04T12:18:45;8.13;;;4.55;;
10226;SDS011;15634;48.766;2.272;2023-06-04T12:21:18;6.55;;;3.70;;
10226;SDS011;15634;48.766;2.272;2023-06-04T12:23:47;20.92;;;10.63;;
10226;SDS011;15634;48.766;2.272;2023-06-04T12:26:21;12.25;;;6.43;;
10226;SDS011;15634;48.766;2.272;2023-06-04T12:28:58;16.15;;;8.70;;
10226;SDS011;15634;48.766;2.272;2023-06-04T12:31:25;7.03;;;4.35;;
10226;SDS011;15634;48.766;2.272;2023-06-04T12:33:58;5.43;;;3.40;;
10226;SDS011;15634;48.766;2.272;2023-06-04T12:36:27;8.70;;;4.00;;
10226;SDS011;15634;48.766;2.272;2023-06-04T12:38:57;6.97;;;3.70;;
10226;SDS011;15634;48.766;2.272;2023-06-04T12:41:25;6.07;;;3.42;;
10226;SDS011;15634;48.766;2.272;2023-06-04T12:43:51;5.75;;;3.22;;
10226;SDS011;15634;48.766;2.272;2023-06-04T12:46:18;8.98;;;4.45;;
10226;SDS011;15634;48.766;2.272;2023-06-04T12:48:45;6.28;;;3.22;;
10226;SDS011;15634;48.766;2.272;2023-06-04T12:51:11;6.82;;;3.28;;
10226;SDS011;15634;48.766;2.272;2023-06-04T12:53:40;9.35;;;3.75;;
10226;SDS011;15634;48.766;2.272;2023-06-04T12:56:06;6.85;;;3.22;;
10226;SDS011;15634;48.766;2.272;2023-06-04T12:58:33;4.78;;;3.00;;
10226;SDS011;15634;48.766;2.272;2023-06-04T13:01:01;5.57;;;2.67;;
10226;SDS011;15634;48.766;2.272;2023-06-04T13:03:29;5.80;;;2.85;;
10226;SDS011;15634;48.766;2.272;2023-06-04T13:05:56;4.53;;;2.80;;
10226;SDS011;15634;48.766;2.272;2023-06-04T13:08:23;5.18;;;3.17;;
10226;SDS011;15634;48.766;2.272;2023-06-04T13:10:51;4.88;;;2.70;;
10226;SDS011;15634;48.766;2.272;2023-06-04T13:13:20;5.97;;;3.08;;
10226;SDS011;15634;48.766;2.272;2023-06-04T13:15:47;3.63;;;2.70;;
10226;SDS011;15634;48.766;2.272;2023-06-04T13:18:13;6.18;;;2.75;;
10226;SDS011;15634;48.766;2.272;2023-06-04T13:20:40;5.75;;;2.67;;
10226;SDS011;15634;48.766;2.272;2023-06-04T13:23:07;6.68;;;2.70;;
10226;SDS011;15634;48.766;2.272;2023-06-04T13:25:34;4.75;;;2.80;;
10226;SDS011;15634;48.766;2.272;2023-06-04T13:28:02;5.40;;;2.92;;
10226;SDS011;15634;48.766;2.272;2023-06-04T13:30:29;4.50;;;2.90;;
10226;SDS011;15634;48.766;2.272;2023-06-04T13:32:56;6.80;;;2.88;;
10226;SDS011;15634;48.766;2.272;2023-06-04T13:35:23;4.78;;;2.92;;
10226;SDS011;15634;48.766;2.272;2023-06-04T13:37:50;4.35;;;2.80;;
10226;SDS011;15634;48.766;2.272;2023-06-04T13:40:16;6.07;;;4.00;;
10226;SDS011;15634;48.766;2.272;2023-06-04T13:42:43;5.95;;;2.67;;
10226;SDS011;15634;48.766;2.272;2023-06-04T13:45:11;3.83;;;2.60;;
10226;SDS011;15634;48.766;2.272;2023-06-04T13:47:38;4.13;;;2.50;;
10226;SDS011;15634;48.766;2.272;2023-06-04T13:50:05;4.95;;;2.80;;
10226;SDS011;15634;48.766;2.272;2023-06-04T13:52:32;7.35;;;2.92;;
10226;SDS011;15634;48.766;2.272;2023-06-04T13:54:59;3.80;;;2.45;;
10226;SDS011;15634;48.766;2.272;2023-06-04T13:57:26;4.40;;;2.78;;
10226;SDS011;15634;48.766;2.272;2023-06-04T13:59:53;3.53;;;2.30;;
10226;SDS011;15634;48.766;2.272;2023-06-04T14:02:21;5.65;;;2.70;;
10226;SDS011;15634;48.766;2.272;2023-06-04T14:04:49;4.47;;;2.67;;
10226;SDS011;15634;48.766;2.272;2023-06-04T14:07:16;3.40;;;2.53;;
10226;SDS011;15634;48.766;2.272;2023-06-04T14:09:43;4.30;;;2.50;;
10226;SDS011;15634;48.766;2.272;2023-06-04T14:12:09;4.15;;;2.35;;
10226;SDS011;15634;48.766;2.272;2023-06-04T14:14:36;4.95;;;2.60;;
10226;SDS011;15634;48.766;2.272;2023-06-04T14:17:03;4.85;;;3.30;;
10226;SDS011;15634;48.766;2.272;2023-06-04T14:19:32;6.95;;;3.00;;
10226;SDS011;15634;48.766;2.272;2023-06-04T14:21:58;10.68;;;5.40;;
10226;SDS011;15634;48.766;2.272;2023-06-04T14:24:25;9.50;;;5.30;;
10226;SDS011;15634;48.766;2.272;2023-06-04T14:26:51;4.85;;;3.38;;
10226;SDS011;15634;48.766;2.272;2023-06-04T14:29:18;6.07;;;2.55;;
10226;SDS011;15634;48.766;2.272;2023-06-04T14:31:45;9.88;;;5.47;;
10226;SDS011;15634;48.766;2.272;2023-06-04T14:34:11;8.38;;;4.20;;
10226;SDS011;15634;48.766;2.272;2023-06-04T14:36:39;13.88;;;6.72;;
10226;SDS011;15634;48.766;2.272;2023-06-04T14:39:06;9.63;;;4.95;;
10226;SDS011;15634;48.766;2.272;2023-06-04T14:41:33;11.27;;;5.55;;
10226;SDS011;15634;48.766;2.272;2023-06-04T14:44:00;9.48;;;5.38;;
10226;SDS011;15634;48.766;2.272;2023-06-04T14:46:27;10.88;;;5.85;;
10226;SDS011;15634;48.766;2.272;2023-06-04T14:48:53;6.22;;;3.90;;
10226;SDS011;15634;48.766;2.272;2023-06-04T14:51:20;5.85;;;3.67;;
10226;SDS011;15634;48.766;2.272;2023-06-04T14:53:49;7.45;;;3.92;;